Terminal Aerodrome Forecast
Issued by NWS

Home | Current Version | Previous Version | Text Only | Print | Product List | Glossary On
Versions: 1 2 3 4 5 6 7 8 9 10 11 12 13 14 15 16 17 18
000
FTUS43 KOAX 302326
TAFCDR
TAF
KCDR 302326Z 3100/3124 09008KT P6SM BKN070 OVC100
     FM310200 10008KT P6SM OVC070
     FM310800 09007KT 6SM -RA BKN025 OVC050
     FM311500 10009KT 5SM -RA BR BKN015 OVC025
     FM312000 09010KT 2SM -RASN BR OVC008=

USA.gov is the U.S. government's official web portal to all federal, state and local government web resources and services.